createdAt,value
2019-04-07T18:02:10.675Z,11.47
2019-04-07T18:05:15.697Z,11.50
2019-04-07T18:08:07.783Z,11.40
2019-04-07T18:10:46.605Z,11.38
2019-04-07T18:13:41.964Z,11.46
2019-04-07T18:16:36.679Z,11.34
2019-04-07T18:19:31.855Z,11.30
2019-04-07T18:22:28.611Z,11.15
2019-04-07T18:25:12.239Z,11.21
2019-04-07T18:28:04.026Z,11.33
2019-04-07T18:30:43.814Z,11.23
2019-04-07T18:33:26.988Z,11.29
2019-04-07T18:36:16.937Z,11.18
2019-04-07T18:39:08.001Z,11.31
2019-04-07T18:41:57.229Z,11.37
2019-04-07T18:44:54.225Z,11.40
2019-04-07T18:47:35.711Z,11.32
2019-04-07T18:50:25.280Z,11.35
2019-04-07T18:53:27.683Z,11.39
2019-04-07T18:56:15.525Z,11.43
2019-04-07T18:58:55.813Z,11.44
2019-04-07T19:02:04.485Z,11.51
2019-04-07T19:05:08.164Z,11.57
2019-04-07T19:07:53.963Z,11.46
2019-04-07T19:11:10.388Z,11.45
2019-04-07T19:14:20.947Z,11.24
2019-04-07T19:16:58.807Z,11.38
2019-04-07T19:19:53.980Z,11.47
2019-04-07T19:22:41.652Z,11.45
2019-04-07T19:25:27.025Z,11.44
2019-04-07T19:28:16.720Z,11.42
2019-04-07T19:31:19.335Z,11.49
2019-04-07T19:34:03.892Z,11.50
2019-04-07T19:36:57.236Z,11.51
2019-04-07T19:39:45.213Z,11.44
2019-04-07T19:42:39.232Z,11.50
2019-04-07T19:45:24.778Z,11.53
2019-04-07T19:48:14.417Z,11.48
2019-04-07T19:51:03.101Z,11.52
2019-04-07T19:53:55.873Z,11.54
2019-04-07T19:56:51.162Z,11.47
2019-04-07T19:59:30.176Z,11.40
2019-04-07T20:02:22.528Z,11.37
2019-04-07T20:05:32.157Z,11.34
2019-04-07T20:08:14.240Z,11.22
2019-04-07T20:11:09.746Z,11.28
2019-04-07T20:14:02.948Z,11.24
2019-04-07T20:16:51.369Z,11.18
2019-04-07T20:19:41.254Z,11.21
2019-04-07T20:22:37.122Z,11.18
2019-04-07T20:25:17.496Z,11.09
2019-04-07T20:27:56.145Z,11.14
2019-04-07T20:30:51.732Z,11.18
2019-04-07T20:33:45.708Z,11.25
2019-04-07T20:36:42.268Z,11.21
2019-04-07T20:39:43.936Z,11.32
2019-04-07T20:42:48.461Z,11.40
2019-04-07T20:45:35.428Z,11.43
2019-04-07T20:48:31.603Z,11.44
2019-04-07T20:51:19.326Z,11.35
2019-04-07T20:54:07.594Z,11.42
2019-04-07T20:57:11.420Z,11.36
2019-04-07T21:00:03.663Z,11.42
2019-04-07T21:03:14.497Z,11.29
2019-04-07T21:05:42.312Z,11.28
2019-04-07T21:08:24.055Z,11.22
2019-04-07T21:11:16.119Z,11.21
2019-04-07T21:14:01.654Z,11.29
2019-04-07T21:16:46.448Z,11.30
2019-04-07T21:19:42.259Z,11.30
2019-04-07T21:22:45.057Z,11.15
2019-04-07T21:25:29.860Z,11.18
2019-04-07T21:28:14.417Z,11.17
2019-04-07T21:30:58.809Z,11.13
2019-04-07T21:33:47.636Z,11.14
2019-04-07T21:36:26.389Z,11.00
2019-04-07T21:39:08.776Z,11.03
2019-04-07T21:42:01.783Z,10.96
2019-04-07T21:45:02.391Z,10.97
2019-04-07T21:47:44.940Z,10.96
2019-04-07T21:50:40.011Z,10.92
2019-04-07T21:53:30.913Z,10.84
2019-04-07T21:56:20.439Z,10.97
2019-04-07T21:59:09.632Z,10.88
2019-04-07T22:02:12.629Z,10.92
2019-04-07T22:05:04.576Z,10.91
2019-04-07T22:07:56.952Z,10.96
2019-04-07T22:10:27.564Z,10.91
2019-04-07T22:13:01.813Z,10.97
2019-04-07T22:15:43.005Z,11.00
2019-04-07T22:18:06.835Z,11.00
2019-04-07T22:20:36.968Z,11.08
2019-04-07T22:23:09.578Z,11.10
2019-04-07T22:25:54.358Z,11.19
2019-04-07T22:28:28.393Z,11.14
2019-04-07T22:30:57.994Z,11.17
2019-04-07T22:33:30.825Z,11.22
2019-04-07T22:36:01.793Z,11.28
2019-04-07T22:38:32.385Z,11.32
2019-04-07T22:41:02.844Z,11.26
2019-04-07T22:43:33.821Z,11.27
2019-04-07T22:46:14.744Z,11.23
2019-04-07T22:48:36.584Z,11.23
2019-04-07T22:51:12.086Z,11.22
2019-04-07T22:53:41.286Z,11.23
2019-04-07T22:56:12.152Z,11.14
2019-04-07T22:58:44.404Z,11.13
2019-04-07T23:01:15.041Z,11.19
2019-04-07T23:03:45.648Z,11.23
2019-04-07T23:06:16.835Z,11.27
2019-04-07T23:08:47.480Z,11.30
2019-04-07T23:11:17.906Z,11.34
2019-04-07T23:13:49.367Z,11.36
2019-04-07T23:16:20.658Z,11.37
2019-04-07T23:18:50.886Z,11.36
2019-04-07T23:21:24.647Z,11.34
2019-04-07T23:23:55.614Z,11.32
2019-04-07T23:26:27.224Z,11.31
2019-04-07T23:28:58.431Z,11.27
2019-04-07T23:31:32.058Z,11.32
2019-04-07T23:34:03.049Z,11.28
2019-04-07T23:36:36.123Z,11.31
2019-04-07T23:39:09.858Z,11.33
2019-04-07T23:41:41.410Z,11.23
2019-04-07T23:44:12.924Z,11.25
2019-04-07T23:46:43.613Z,11.23
2019-04-07T23:49:14.009Z,11.21
2019-04-07T23:51:44.420Z,11.29
2019-04-07T23:54:16.400Z,11.34
2019-04-07T23:56:47.762Z,11.18
2019-04-07T23:59:18.682Z,11.11
